Time;durP1;ratioP1;P1;durP2;ratioP2;P2;SDS_P1;SDS_P2;PMS_P1;PMS_P2;Temp;Humidity;BMP_temperature;BMP_pressure;BME280_temperature;BME280_humidity;BME280_pressure;Samples;Min_cycle;Max_cycle;Signal;HPM_P1;HPM_P2
2022/12/26 00:00:59;;;;;;;2.42;1.90;;;20.70;46.80;;;;;;5049396;28;20025;-51
2022/12/26 00:03:25;;;;;;;2.65;2.00;;;20.70;46.80;;;;;;5049096;28;20060;-49
2022/12/26 00:05:51;;;;;;;2.42;2.10;;;20.70;46.80;;;;;;5048007;28;20399;-51
2022/12/26 00:08:17;;;;;;;1.90;1.75;;;20.80;46.80;;;;;;5048553;28;20472;-49
2022/12/26 00:10:43;;;;;;;2.40;2.20;;;20.70;46.80;;;;;;5047457;28;20021;-45
2022/12/26 00:13:09;;;;;;;2.60;2.22;;;20.70;46.80;;;;;;5049889;28;20514;-47
2022/12/26 00:15:38;;;;;;;2.90;2.33;;;20.70;46.90;;;;;;5050359;28;20086;-47
2022/12/26 00:18:04;;;;;;;3.30;2.67;;;20.70;46.90;;;;;;5052265;28;20348;-48
2022/12/26 00:20:30;;;;;;;3.05;2.30;;;20.70;46.90;;;;;;5052921;28;20021;-47
2022/12/26 00:22:56;;;;;;;3.00;2.60;;;20.70;46.90;;;;;;5051653;28;20043;-49
2022/12/26 00:25:21;;;;;;;3.92;2.85;;;20.70;46.90;;;;;;5053294;28;20035;-49
2022/12/26 00:27:47;;;;;;;3.55;3.17;;;20.70;46.90;;;;;;5052391;28;20530;-52
2022/12/26 00:30:13;;;;;;;3.70;2.95;;;20.70;46.90;;;;;;5052929;28;20036;-48
2022/12/26 00:32:39;;;;;;;3.58;2.90;;;20.70;46.90;;;;;;5051622;28;20037;-48
2022/12/26 00:35:05;;;;;;;3.45;3.00;;;20.70;46.90;;;;;;5053505;28;20021;-51
2022/12/26 00:37:31;;;;;;;3.58;2.97;;;20.70;46.90;;;;;;5053247;28;20383;-47
2022/12/26 00:39:57;;;;;;;4.15;3.33;;;20.70;46.90;;;;;;5052285;28;20033;-50
2022/12/26 00:42:24;;;;;;;4.00;3.47;;;20.70;46.90;;;;;;5053217;28;20033;-49
2022/12/26 00:44:50;;;;;;;4.68;3.45;;;20.70;47.00;;;;;;5049990;28;20562;-49
2022/12/26 00:47:16;;;;;;;5.22;4.07;;;20.70;46.90;;;;;;5052962;28;20021;-46
2022/12/26 00:49:42;;;;;;;5.13;3.70;;;20.70;47.50;;;;;;5051343;28;20116;-48
2022/12/26 00:52:08;;;;;;;4.82;3.85;;;20.70;46.90;;;;;;5052680;28;20150;-51
2022/12/26 00:54:34;;;;;;;4.50;3.92;;;20.70;46.90;;;;;;5052229;28;20029;-48
2022/12/26 00:56:59;;;;;;;5.80;4.43;;;20.70;46.90;;;;;;5037473;28;20092;-51
2022/12/26 00:59:25;;;;;;;5.00;4.00;;;20.60;46.80;;;;;;5052575;28;20025;-47
2022/12/26 01:01:51;;;;;;;4.78;4.00;;;20.70;46.90;;;;;;5051997;28;20487;-46
2022/12/26 01:04:17;;;;;;;5.68;4.40;;;20.60;46.90;;;;;;5051220;28;20044;-45
2022/12/26 01:06:43;;;;;;;4.60;3.88;;;20.60;46.90;;;;;;5052244;28;20395;-49
2022/12/26 01:09:10;;;;;;;4.15;3.65;;;20.60;46.90;;;;;;5052007;28;20090;-48
2022/12/26 01:11:39;;;;;;;5.43;4.18;;;20.60;46.90;;;;;;5052436;28;20044;-49
2022/12/26 01:14:17;;;;;;;4.05;3.65;;;20.70;47.00;;;;;;5051845;28;21380;-48
2022/12/26 01:16:45;;;;;;;4.68;3.97;;;20.60;46.90;;;;;;5033652;28;20456;-45
2022/12/26 01:19:12;;;;;;;4.50;3.50;;;20.60;46.90;;;;;;5031621;28;20027;-48
2022/12/26 01:21:40;;;;;;;3.97;3.58;;;20.60;46.90;;;;;;5031343;28;20515;-49
2022/12/26 01:24:06;;;;;;;4.57;4.10;;;20.60;46.90;;;;;;5032546;28;20040;-49
2022/12/26 01:26:33;;;;;;;4.07;3.53;;;20.60;46.90;;;;;;5030740;28;20037;-48
2022/12/26 01:28:59;;;;;;;4.28;3.80;;;20.60;47.00;;;;;;5031302;28;20092;-47
2022/12/26 01:31:25;;;;;;;4.45;3.92;;;20.60;47.00;;;;;;5029833;28;20053;-48
2022/12/26 01:33:51;;;;;;;3.90;3.50;;;20.60;47.00;;;;;;5031664;28;20068;-50
2022/12/26 01:36:17;;;;;;;4.00;3.60;;;20.60;47.10;;;;;;5031404;28;20035;-49
2022/12/26 01:38:44;;;;;;;3.80;3.38;;;20.60;47.10;;;;;;5031794;28;20025;-49
2022/12/26 01:41:20;;;;;;;4.68;4.18;;;20.60;47.10;;;;;;5031218;28;20033;-50
2022/12/26 01:44:00;;;;;;;3.88;3.47;;;20.60;47.10;;;;;;5031828;28;20475;-49
2022/12/26 01:46:42;;;;;;;3.65;3.33;;;20.60;47.10;;;;;;5029544;28;20025;-48
2022/12/26 01:49:16;;;;;;;4.78;3.38;;;20.50;47.00;;;;;;5031629;28;20367;-45
2022/12/26 01:51:49;;;;;;;4.68;3.65;;;20.50;47.00;;;;;;5028881;28;20057;-49
2022/12/26 01:54:15;;;;;;;4.22;3.83;;;20.50;47.00;;;;;;5031580;28;20041;-49
2022/12/26 01:56:44;;;;;;;3.70;3.35;;;20.50;47.00;;;;;;5031101;28;20059;-55
2022/12/26 01:59:16;;;;;;;3.65;3.33;;;20.50;46.90;;;;;;5030089;28;20037;-56
2022/12/26 02:01:44;;;;;;;3.25;2.85;;;20.50;47.60;;;;;;5031419;28;20041;-53
2022/12/26 02:07:01;;;;;;;3.40;3.08;;;20.50;46.90;;;;;;5030560;28;20108;-53
2022/12/26 02:09:29;;;;;;;3.20;2.90;;;20.50;46.90;;;;;;5031012;28;20029;-52
2022/12/26 02:12:01;;;;;;;3.40;2.90;;;20.50;46.90;;;;;;5033337;28;20032;-52
2022/12/26 02:14:27;;;;;;;3.58;3.28;;;20.50;46.90;;;;;;5031234;28;20471;-52
2022/12/26 02:16:54;;;;;;;3.80;3.40;;;20.50;46.90;;;;;;5040219;28;20123;-51
2022/12/26 02:19:46;;;;;;;3.25;2.95;;;20.50;47.00;;;;;;5050377;28;20071;-50
2022/12/26 02:22:33;;;;;;;3.53;2.92;;;20.50;46.90;;;;;;5049912;28;20052;-51
2022/12/26 02:25:02;;;;;;;2.90;2.60;;;20.50;46.90;;;;;;5050728;28;20064;-47
2022/12/26 02:28:07;;;;;;;3.20;2.90;;;20.50;46.90;;;;;;5050613;28;20029;-47
2022/12/26 02:31:12;;;;;;;3.75;2.40;;;20.50;46.90;;;;;;5049016;28;20033;-52
2022/12/26 02:33:54;;;;;;;3.72;3.33;;;20.50;46.90;;;;;;5049690;28;20056;-50
2022/12/26 02:36:54;;;;;;;3.03;2.72;;;20.50;46.90;;;;;;5047811;28;20029;-52
2022/12/26 02:39:50;;;;;;;3.40;2.80;;;20.40;46.90;;;;;;5006723;28;20037;-49
2022/12/26 02:42:40;;;;;;;4.03;3.38;;;20.50;46.90;;;;;;5049522;28;20029;-50
2022/12/26 02:48:26;;;;;;;3.80;3.38;;;20.40;46.90;;;;;;5050609;28;20300;-51
2022/12/26 03:14:46;;;;;;;3.08;2.78;;;20.40;46.90;;;;;;5049873;28;20029;-49
2022/12/26 03:17:24;;;;;;;3.70;2.95;;;20.30;46.90;;;;;;5037081;28;20037;-50
2022/12/26 03:20:07;;;;;;;2.92;2.63;;;20.40;46.90;;;;;;5047955;28;20021;-48
2022/12/26 03:22:39;;;;;;;4.07;2.60;;;20.30;46.90;;;;;;5047649;28;20443;-49
2022/12/26 03:27:54;;;;;;;2.90;2.60;;;20.30;46.80;;;;;;5049386;28;20426;-54
2022/12/26 03:34:15;;;;;;;2.83;2.55;;;20.40;46.80;;;;;;5049750;28;20029;-47
2022/12/26 03:35:51;;;;;;;2.90;2.60;;;20.40;46.80;;;;;;5049173;28;20029;-46
2022/12/26 03:38:24;;;;;;;2.45;2.25;;;20.40;46.80;;;;;;5049147;28;20082;-47
2022/12/26 04:19:48;;;;;;;3.30;2.83;;;20.30;46.60;;;;;;5050932;28;20037;-48
2022/12/26 04:45:18;;;;;;;2.55;2.30;;;20.30;46.60;;;;;;5051003;28;20024;-51
2022/12/26 04:50:10;;;;;;;2.72;2.53;;;20.30;46.60;;;;;;5052596;28;20076;-47
2022/12/26 04:50:30;;;;;;;2.72;2.50;;;20.30;46.60;;;;;;5052694;28;20063;-49
2022/12/26 04:52:59;;;;;;;3.60;2.95;;;20.30;46.60;;;;;;5053350;28;20074;-52
2022/12/26 04:55:30;;;;;;;3.13;2.78;;;20.30;46.60;;;;;;5051193;28;20029;-51
2022/12/26 04:57:58;;;;;;;2.60;2.40;;;20.30;46.60;;;;;;5054254;28;20059;-47
2022/12/26 05:00:26;;;;;;;2.40;2.10;;;20.30;46.60;;;;;;5050590;28;20036;-50
2022/12/26 05:11:23;;;;;;;1.92;1.80;;;20.30;46.60;;;;;;5051446;28;21735;-50
2022/12/26 05:13:52;;;;;;;2.58;2.08;;;20.30;46.60;;;;;;5054605;28;20071;-52
2022/12/26 05:30:08;;;;;;;1.70;1.60;;;20.20;46.40;;;;;;5051375;28;20029;-49
2022/12/26 05:35:19;;;;;;;1.55;1.42;;;20.20;46.40;;;;;;5051900;28;20032;-50
2022/12/26 05:37:46;;;;;;;1.60;1.42;;;20.20;46.40;;;;;;5050904;28;20025;-53
2022/12/26 05:40:12;;;;;;;1.30;1.20;;;20.20;46.40;;;;;;5051936;28;20360;-51
2022/12/26 05:42:39;;;;;;;1.77;1.10;;;20.20;46.40;;;;;;5052857;28;20028;-48
2022/12/26 05:45:05;;;;;;;1.27;1.10;;;20.20;46.40;;;;;;5051924;28;20025;-51
2022/12/26 05:47:31;;;;;;;1.38;1.25;;;20.20;46.30;;;;;;5050031;28;20025;-51
2022/12/26 05:49:57;;;;;;;2.25;1.30;;;20.20;46.30;;;;;;5050026;28;20024;-53
2022/12/26 05:52:23;;;;;;;3.00;1.20;;;20.20;46.30;;;;;;5051572;28;20033;-51
2022/12/26 05:54:49;;;;;;;1.48;1.00;;;20.20;46.30;;;;;;5050785;28;20032;-54
2022/12/26 05:57:14;;;;;;;1.20;1.10;;;20.20;46.20;;;;;;5051711;28;20083;-55
2022/12/26 05:59:40;;;;;;;1.17;0.98;;;20.20;46.20;;;;;;5050970;28;20021;-53
2022/12/26 06:02:06;;;;;;;1.25;1.10;;;20.20;46.20;;;;;;5051922;28;20033;-50
2022/12/26 06:04:33;;;;;;;1.00;0.90;;;20.20;46.20;;;;;;5050332;28;20047;-49
2022/12/26 06:06:59;;;;;;;1.15;1.02;;;20.20;46.20;;;;;;5050927;28;20033;-50
2022/12/26 06:09:25;;;;;;;1.40;0.90;;;20.20;46.20;;;;;;5051741;28;20037;-53
2022/12/26 06:11:50;;;;;;;1.65;1.00;;;20.20;46.30;;;;;;5054683;28;20059;-52
2022/12/26 06:14:16;;;;;;;1.30;0.90;;;20.20;46.20;;;;;;5048936;28;20127;-50
2022/12/26 06:16:42;;;;;;;0.65;0.65;;;20.20;46.10;;;;;;5051201;28;20033;-48
2022/12/26 06:19:08;;;;;;;1.00;0.80;;;20.20;46.10;;;;;;5050500;28;20101;-50
2022/12/26 06:21:34;;;;;;;1.38;0.85;;;20.20;46.10;;;;;;5050211;28;20048;-50
2022/12/26 06:24:00;;;;;;;1.15;0.70;;;20.20;46.70;;;;;;5050138;28;20064;-51
2022/12/26 06:26:26;;;;;;;0.93;0.80;;;20.20;46.10;;;;;;5050871;28;20340;-51
2022/12/26 06:28:52;;;;;;;1.00;0.80;;;20.20;46.00;;;;;;5051163;28;20020;-50
2022/12/26 06:31:21;;;;;;;0.88;0.80;;;20.20;46.00;;;;;;5051051;28;20038;-54
2022/12/26 06:33:48;;;;;;;1.70;0.82;;;20.20;46.00;;;;;;5049404;28;20060;-51
2022/12/26 06:36:18;;;;;;;1.13;0.65;;;20.20;45.90;;;;;;5050113;28;20032;-52
2022/12/26 06:38:45;;;;;;;0.57;0.50;;;20.20;45.90;;;;;;5051177;28;20025;-49
2022/12/26 06:41:14;;;;;;;1.02;0.60;;;20.20;45.90;;;;;;5050179;28;20020;-53
2022/12/26 06:43:40;;;;;;;0.85;0.68;;;20.20;45.90;;;;;;5048349;28;20040;-51
2022/12/26 06:46:10;;;;;;;0.70;0.70;;;20.20;45.80;;;;;;5050176;28;20468;-50
2022/12/26 06:48:38;;;;;;;1.08;0.70;;;20.20;45.90;;;;;;5048939;28;20082;-51
2022/12/26 06:51:11;;;;;;;0.90;0.70;;;20.20;45.80;;;;;;5050041;28;20025;-50
2022/12/26 06:53:37;;;;;;;1.45;0.80;;;20.20;45.90;;;;;;5049659;28;20122;-50
2022/12/26 06:56:13;;;;;;;1.40;0.80;;;20.20;45.90;;;;;;5052276;28;20036;-51
2022/12/26 06:58:39;;;;;;;1.15;0.68;;;20.20;45.90;;;;;;5050284;28;20098;-48
2022/12/26 07:01:07;;;;;;;1.08;0.80;;;20.20;45.90;;;;;;5049660;28;20515;-52
2022/12/26 07:03:33;;;;;;;0.73;0.70;;;20.20;45.90;;;;;;5048558;28;20044;-48
2022/12/26 07:06:20;;;;;;;0.80;0.70;;;20.20;45.80;;;;;;5049144;28;20468;-49
2022/12/26 07:08:46;;;;;;;1.05;0.70;;;20.10;45.80;;;;;;5049138;28;20045;-49
2022/12/26 07:11:24;;;;;;;1.35;0.95;;;20.10;45.80;;;;;;5049109;28;20080;-51
2022/12/26 07:13:52;;;;;;;1.08;0.77;;;20.20;45.80;;;;;;5049305;28;20037;-51
2022/12/26 07:16:18;;;;;;;0.80;0.80;;;20.10;45.80;;;;;;5049026;28;20048;-48
2022/12/26 07:18:44;;;;;;;0.73;0.70;;;20.20;45.90;;;;;;5031983;28;20083;-51
2022/12/26 07:21:12;;;;;;;1.25;0.93;;;20.10;45.80;;;;;;5032092;28;20429;-48
2022/12/26 07:23:39;;;;;;;1.33;0.70;;;20.10;45.80;;;;;;5050062;28;20033;-51
2022/12/26 07:26:06;;;;;;;0.60;0.60;;;20.10;45.90;;;;;;5048323;28;20114;-49
2022/12/26 07:28:32;;;;;;;0.75;0.63;;;20.10;45.90;;;;;;5049725;28;20444;-51
2022/12/26 07:30:59;;;;;;;1.15;0.73;;;20.10;45.80;;;;;;5049892;28;20401;-53
2022/12/26 07:33:26;;;;;;;1.67;0.80;;;20.10;45.80;;;;;;5050827;28;20043;-49
2022/12/26 07:35:52;;;;;;;0.85;0.70;;;20.10;45.80;;;;;;5048492;28;20025;-52
2022/12/26 07:38:18;;;;;;;1.40;0.70;;;20.10;46.50;;;;;;5050362;28;20021;-49
2022/12/26 07:40:44;;;;;;;1.20;0.82;;;20.10;45.80;;;;;;5049352;28;20333;-50
2022/12/26 07:43:09;;;;;;;0.88;0.60;;;20.10;45.80;;;;;;5050789;28;20021;-48
2022/12/26 07:45:35;;;;;;;2.28;0.70;;;20.10;45.80;;;;;;5051902;28;20123;-50
2022/12/26 07:48:01;;;;;;;1.08;0.60;;;20.10;45.80;;;;;;5053866;28;20445;-50
2022/12/26 07:50:27;;;;;;;1.13;0.70;;;20.10;45.80;;;;;;5047105;28;20098;-53
2022/12/26 07:52:54;;;;;;;1.52;0.73;;;20.10;45.80;;;;;;5047065;28;20041;-54
2022/12/26 07:55:20;;;;;;;1.08;0.80;;;20.10;45.80;;;;;;5050112;28;20028;-50
2022/12/26 07:57:51;;;;;;;1.02;0.75;;;20.10;45.80;;;;;;5057328;28;21591;-51
2022/12/26 08:00:18;;;;;;;1.42;0.70;;;20.10;45.80;;;;;;5051072;28;20060;-50
2022/12/26 08:02:48;;;;;;;1.58;0.70;;;20.10;45.80;;;;;;5048722;28;20360;-49
2022/12/26 08:05:15;;;;;;;0.95;0.77;;;20.10;45.80;;;;;;5051717;28;20346;-50
2022/12/26 08:07:41;;;;;;;2.22;0.95;;;20.00;45.70;;;;;;5045596;28;20538;-49
2022/12/26 08:10:07;;;;;;;1.85;0.70;;;20.00;45.70;;;;;;5052263;28;20029;-48
2022/12/26 08:12:35;;;;;;;1.33;0.60;;;20.00;45.70;;;;;;5051657;28;20031;-50
2022/12/26 08:15:02;;;;;;;2.28;0.90;;;20.00;45.70;;;;;;5050751;28;20368;-50
2022/12/26 08:17:30;;;;;;;1.05;0.65;;;20.00;45.70;;;;;;5050290;28;20053;-54
2022/12/26 08:19:56;;;;;;;0.90;0.60;;;20.00;45.70;;;;;;5052952;28;20029;-52
2022/12/26 08:22:23;;;;;;;1.35;0.70;;;20.00;45.80;;;;;;5037074;28;20437;-54
2022/12/26 08:24:49;;;;;;;1.00;0.70;;;20.00;45.70;;;;;;5048857;28;20021;-50
2022/12/26 08:27:15;;;;;;;0.98;0.60;;;20.00;45.70;;;;;;5032938;28;20486;-50
2022/12/26 08:29:41;;;;;;;0.60;0.50;;;20.00;45.70;;;;;;5049114;28;20452;-52
2022/12/26 08:32:07;;;;;;;1.10;0.60;;;20.00;45.70;;;;;;5050661;28;20082;-48
2022/12/26 08:34:34;;;;;;;1.27;0.50;;;20.00;45.70;;;;;;5050053;28;20049;-49
2022/12/26 08:37:00;;;;;;;1.63;0.60;;;20.00;45.80;;;;;;5047222;28;20048;-56
2022/12/26 08:39:27;;;;;;;1.15;0.60;;;20.00;45.90;;;;;;5056742;28;20500;-49
2022/12/26 08:41:54;;;;;;;1.38;0.70;;;20.00;46.00;;;;;;5055243;28;20348;-47
2022/12/26 08:44:20;;;;;;;1.92;0.70;;;20.10;46.10;;;;;;5055563;28;20422;-50
2022/12/26 08:46:46;;;;;;;1.75;0.88;;;20.10;46.20;;;;;;5033244;28;20649;-53
2022/12/26 08:49:12;;;;;;;1.20;0.60;;;20.10;46.30;;;;;;5050900;28;20025;-52
2022/12/26 08:51:37;;;;;;;1.10;0.50;;;20.10;46.40;;;;;;5047780;28;22056;-53
2022/12/26 08:54:04;;;;;;;0.60;0.50;;;20.10;46.40;;;;;;5055185;28;20120;-52
2022/12/26 08:56:31;;;;;;;1.50;0.50;;;20.20;46.50;;;;;;5052833;28;20061;-53
2022/12/26 08:58:57;;;;;;;0.65;0.50;;;20.20;46.40;;;;;;5056059;28;20235;-49
2022/12/26 09:01:25;;;;;;;1.67;0.70;;;20.30;46.40;;;;;;5053506;28;20104;-51
2022/12/26 09:03:59;;;;;;;0.50;0.45;;;20.30;46.40;;;;;;5055349;28;20403;-51
2022/12/26 09:06:25;;;;;;;2.10;0.65;;;20.40;46.40;;;;;;5037545;28;20057;-52
2022/12/26 09:08:51;;;;;;;1.05;0.60;;;20.40;46.30;;;;;;5051327;28;20032;-54
2022/12/26 09:11:22;;;;;;;1.00;0.60;;;20.50;46.30;;;;;;5055449;28;20352;-50
2022/12/26 09:13:48;;;;;;;0.93;0.50;;;20.50;46.20;;;;;;5055254;28;20041;-54
2022/12/26 09:16:20;;;;;;;0.80;0.40;;;20.60;46.10;;;;;;5055089;28;20049;-56
2022/12/26 09:18:47;;;;;;;1.20;0.70;;;20.70;46.10;;;;;;5055000;28;20456;-51
2022/12/26 09:21:14;;;;;;;1.73;0.60;;;20.70;46.70;;;;;;5057049;28;20033;-53
2022/12/26 09:23:42;;;;;;;1.65;0.60;;;20.70;46.10;;;;;;5049052;28;20384;-52
2022/12/26 09:26:15;;;;;;;0.90;0.50;;;20.80;46.00;;;;;;5055621;28;20033;-52
2022/12/26 09:28:42;;;;;;;1.92;0.77;;;20.90;45.90;;;;;;5054251;28;20060;-50
2022/12/26 09:31:11;;;;;;;1.08;0.45;;;20.90;46.30;;;;;;5052154;28;20506;-47
2022/12/26 09:33:37;;;;;;;0.68;0.40;;;20.90;45.60;;;;;;5051813;28;20051;-55
2022/12/26 09:36:10;;;;;;;0.88;0.43;;;21.00;45.50;;;;;;5053571;28;20094;-49
2022/12/26 09:38:37;;;;;;;1.20;0.50;;;21.00;45.40;;;;;;5053424;28;20098;-51
2022/12/26 09:41:19;;;;;;;0.90;0.40;;;21.10;45.30;;;;;;5050730;28;20021;-51
2022/12/26 09:44:11;;;;;;;0.85;0.50;;;21.20;45.20;;;;;;5052403;28;20025;-54
2022/12/26 09:47:18;;;;;;;1.80;0.65;;;21.20;45.10;;;;;;5046586;28;20120;-52
2022/12/26 09:49:55;;;;;;;1.17;0.47;;;21.30;45.00;;;;;;5046885;28;20025;-50
2022/12/26 09:52:33;;;;;;;1.30;0.50;;;21.30;45.00;;;;;;5049838;28;20037;-54
2022/12/26 09:55:12;;;;;;;0.40;0.40;;;21.30;44.90;;;;;;5049074;28;20990;-55
2022/12/26 09:57:46;;;;;;;1.13;0.50;;;21.30;44.90;;;;;;5048628;28;20066;-53
2022/12/26 10:00:23;;;;;;;1.27;0.50;;;21.40;44.80;;;;;;5048777;28;20029;-55
2022/12/26 10:02:52;;;;;;;1.17;0.38;;;21.40;44.70;;;;;;5046470;28;20037;-54
2022/12/26 10:05:25;;;;;;;0.95;0.50;;;21.40;44.70;;;;;;5046757;28;20029;-52
2022/12/26 10:07:58;;;;;;;1.30;0.47;;;21.50;44.60;;;;;;5048960;28;20108;-52
2022/12/26 10:10:35;;;;;;;1.35;0.60;;;21.50;44.60;;;;;;5047672;28;20036;-48
2022/12/26 10:13:13;;;;;;;1.27;0.40;;;21.50;44.50;;;;;;5031250;28;20040;-56
2022/12/26 10:15:52;;;;;;;0.50;0.40;;;21.50;44.50;;;;;;5046338;28;20437;-57
2022/12/26 10:18:29;;;;;;;0.52;0.50;;;21.60;44.60;;;;;;5007543;28;20141;-53
2022/12/26 10:21:33;;;;;;;1.10;0.43;;;21.60;44.70;;;;;;5008170;28;20361;-56
2022/12/26 10:24:21;;;;;;;0.90;0.32;;;21.70;44.70;;;;;;5008150;28;20381;-55
2022/12/26 10:26:58;;;;;;;1.00;0.50;;;21.70;44.80;;;;;;5008847;28;20048;-56
2022/12/26 10:29:31;;;;;;;1.13;0.50;;;21.70;44.70;;;;;;5008679;28;20036;-51
2022/12/26 10:32:29;;;;;;;1.35;0.50;;;21.70;44.60;;;;;;5008072;28;20029;-60
2022/12/26 10:34:58;;;;;;;2.38;0.63;;;21.80;44.50;;;;;;5008748;28;20048;-55
2022/12/26 10:37:34;;;;;;;2.13;0.65;;;21.80;44.50;;;;;;5008014;28;20034;-53
2022/12/26 10:40:20;;;;;;;1.73;0.70;;;21.90;44.50;;;;;;5009360;28;20083;-60
2022/12/26 10:42:52;;;;;;;3.33;0.60;;;21.90;44.50;;;;;;5007101;28;20088;-53
2022/12/26 10:45:36;;;;;;;2.72;0.73;;;21.90;44.50;;;;;;5006176;28;20456;-56
2022/12/26 10:48:04;;;;;;;1.52;0.60;;;22.00;44.50;;;;;;5007284;28;20030;-53
2022/12/26 10:50:33;;;;;;;2.70;0.45;;;22.00;44.40;;;;;;5004567;28;20054;-57
2022/12/26 10:53:03;;;;;;;2.15;0.80;;;22.00;44.30;;;;;;5009525;28;20038;-55
2022/12/26 10:55:32;;;;;;;2.10;0.65;;;22.00;44.30;;;;;;5003353;28;20026;-52
2022/12/26 10:58:19;;;;;;;1.50;0.60;;;22.10;44.30;;;;;;5006961;28;20497;-58
2022/12/26 11:00:45;;;;;;;0.70;0.45;;;22.10;44.20;;;;;;5004496;28;20061;-57
2022/12/26 11:03:18;;;;;;;0.88;0.40;;;22.10;44.20;;;;;;5010392;28;20446;-50
2022/12/26 11:05:54;;;;;;;2.63;1.00;;;22.10;44.10;;;;;;5010181;28;20561;-56
2022/12/26 11:08:45;;;;;;;2.08;0.77;;;22.10;44.00;;;;;;5005921;28;20148;-48
2022/12/26 11:11:20;;;;;;;4.22;1.60;;;22.20;43.90;;;;;;5006021;28;20084;-53
2022/12/26 11:13:53;;;;;;;6.13;2.33;;;22.20;44.00;;;;;;5008423;28;20453;-52
2022/12/26 11:16:28;;;;;;;7.18;2.80;;;22.20;44.40;;;;;;5015850;28;20053;-54
2022/12/26 11:18:54;;;;;;;4.82;2.20;;;22.20;44.60;;;;;;5043928;28;20044;-48
2022/12/26 11:21:26;;;;;;;7.35;2.63;;;22.30;44.50;;;;;;5045213;28;20033;-51
2022/12/26 11:24:08;;;;;;;6.03;2.33;;;22.30;44.30;;;;;;5045255;28;20098;-52
2022/12/26 11:26:37;;;;;;;4.10;1.85;;;22.30;44.00;;;;;;5046039;28;20391;-50
2022/12/26 11:29:12;;;;;;;4.70;2.05;;;22.30;43.80;;;;;;5042558;28;20025;-50
2022/12/26 11:31:40;;;;;;;6.68;2.47;;;22.30;43.50;;;;;;5045915;28;20025;-52
2022/12/26 11:34:16;;;;;;;6.03;2.83;;;22.30;43.50;;;;;;5046614;28;20029;-50
2022/12/26 11:36:50;;;;;;;8.65;3.22;;;22.30;43.80;;;;;;5034164;28;20032;-51
2022/12/26 11:39:29;;;;;;;7.03;3.00;;;22.30;44.10;;;;;;5045043;28;20372;-50
2022/12/26 11:41:56;;;;;;;9.20;4.50;;;22.30;44.20;;;;;;5045558;28;20120;-51
2022/12/26 11:44:26;;;;;;;9.02;3.60;;;22.30;44.10;;;;;;5044769;28;20431;-48
2022/12/26 11:47:06;;;;;;;8.80;3.60;;;22.40;44.40;;;;;;5046722;28;20609;-54
2022/12/26 11:49:44;;;;;;;7.47;3.20;;;22.40;44.50;;;;;;5045448;28;20040;-52
2022/12/26 11:52:32;;;;;;;7.40;2.90;;;22.40;44.20;;;;;;5046960;28;20456;-54
2022/12/26 11:54:58;;;;;;;11.40;4.68;;;22.40;43.80;;;;;;5046044;28;20037;-53
2022/12/26 11:57:31;;;;;;;11.30;5.13;;;22.40;43.90;;;;;;5046530;28;20032;-51
2022/12/26 12:00:20;;;;;;;15.63;5.47;;;22.40;44.50;;;;;;5047518;28;21613;-57
2022/12/26 12:02:47;;;;;;;15.80;5.82;;;22.40;45.20;;;;;;5044291;28;20357;-55
2022/12/26 12:05:43;;;;;;;13.00;5.63;;;22.40;45.60;;;;;;5026998;28;20874;-53
2022/12/26 12:08:44;;;;;;;12.45;5.28;;;22.40;46.00;;;;;;4977941;28;20041;-52
2022/12/26 12:11:15;;;;;;;10.95;4.05;;;22.40;45.70;;;;;;5045145;28;20440;-54
2022/12/26 12:13:54;;;;;;;7.80;3.45;;;22.40;45.40;;;;;;5050464;28;20033;-52
2022/12/26 12:16:35;;;;;;;7.43;3.40;;;22.40;45.00;;;;;;5051105;28;20128;-53
2022/12/26 12:19:42;;;;;;;8.70;4.07;;;22.40;44.50;;;;;;5023829;28;20025;-55
2022/12/26 12:22:35;;;;;;;7.65;3.88;;;22.40;44.10;;;;;;4984248;28;20530;-55
2022/12/26 12:25:24;;;;;;;9.68;4.53;;;22.40;44.20;;;;;;4986323;28;20470;-55
2022/12/26 12:28:06;;;;;;;9.63;5.35;;;22.40;44.80;;;;;;5040637;28;20040;-49
2022/12/26 12:30:35;;;;;;;11.00;5.10;;;22.50;45.20;;;;;;5048269;28;20098;-52
2022/12/26 12:33:15;;;;;;;8.57;4.57;;;22.50;45.70;;;;;;5048495;28;20041;-50
2022/12/26 12:35:47;;;;;;;9.20;4.95;;;22.50;45.90;;;;;;5048006;28;20468;-55
2022/12/26 12:38:30;;;;;;;9.15;4.05;;;22.50;45.80;;;;;;5048363;28;20026;-54
2022/12/26 12:41:14;;;;;;;11.10;4.78;;;22.40;45.30;;;;;;5047303;28;20463;-52
2022/12/26 12:43:55;;;;;;;6.32;3.42;;;22.40;45.10;;;;;;5049948;28;20056;-50
2022/12/26 12:46:31;;;;;;;7.97;3.53;;;22.40;44.70;;;;;;5050297;28;20028;-51
2022/12/26 12:49:01;;;;;;;6.78;2.83;;;22.40;44.30;;;;;;5049443;28;20145;-54
2022/12/26 12:51:54;;;;;;;5.32;2.63;;;22.40;44.00;;;;;;5046820;28;20025;-50
2022/12/26 12:54:36;;;;;;;5.57;2.45;;;22.40;43.60;;;;;;5047698;28;20056;-50
2022/12/26 12:57:08;;;;;;;7.13;2.38;;;22.40;43.20;;;;;;5049301;28;20044;-53
2022/12/26 12:59:47;;;;;;;5.55;2.47;;;22.30;42.90;;;;;;5052989;28;20119;-54
2022/12/26 13:02:46;;;;;;;5.15;2.20;;;22.30;42.60;;;;;;5033558;28;20122;-51
2022/12/26 13:05:24;;;;;;;4.00;2.03;;;22.30;42.40;;;;;;5045307;28;20058;-52
2022/12/26 13:08:03;;;;;;;4.63;2.25;;;22.30;42.30;;;;;;5049899;28;20160;-52
2022/12/26 13:10:32;;;;;;;4.03;1.90;;;22.30;42.10;;;;;;5048314;28;20041;-52
2022/12/26 13:13:08;;;;;;;4.40;1.85;;;22.30;41.90;;;;;;5050807;28;20382;-56
2022/12/26 13:15:40;;;;;;;4.15;1.83;;;22.20;41.70;;;;;;5049240;28;20033;-50
2022/12/26 13:18:42;;;;;;;4.38;1.83;;;22.20;41.60;;;;;;5032601;28;20049;-52
2022/12/26 13:21:11;;;;;;;4.03;2.03;;;22.20;41.40;;;;;;4988202;28;20055;-51
2022/12/26 13:26:36;;;;;;;4.75;1.73;;;22.20;41.20;;;;;;5049062;28;20124;-51
2022/12/26 13:29:09;;;;;;;3.90;1.63;;;22.10;41.10;;;;;;5050045;28;20503;-51
2022/12/26 13:31:37;;;;;;;4.90;1.77;;;22.10;41.10;;;;;;5049258;28;20043;-53
2022/12/26 13:34:07;;;;;;;4.47;1.83;;;22.10;41.80;;;;;;5048841;28;20037;-49
2022/12/26 13:36:48;;;;;;;3.42;1.52;;;22.10;41.10;;;;;;5045711;28;20123;-53
2022/12/26 13:39:26;;;;;;;5.40;1.40;;;22.00;41.00;;;;;;5048363;28;20025;-53
2022/12/26 13:45:46;;;;;;;3.78;1.52;;;22.00;40.90;;;;;;5048812;28;20056;-54
2022/12/26 13:48:15;;;;;;;4.85;1.35;;;22.00;40.90;;;;;;5052157;28;20352;-56
2022/12/26 13:51:00;;;;;;;3.75;1.50;;;22.00;40.80;;;;;;5046349;28;20025;-56
2022/12/26 13:53:32;;;;;;;4.38;1.58;;;21.90;40.70;;;;;;5048796;28;20036;-53
2022/12/26 13:56:01;;;;;;;2.72;1.30;;;21.90;40.60;;;;;;5048221;28;20033;-50
2022/12/26 13:58:48;;;;;;;2.13;0.98;;;21.90;40.50;;;;;;5050279;28;20395;-56
2022/12/26 14:01:43;;;;;;;4.25;1.27;;;21.90;40.40;;;;;;5048185;28;20095;-55
2022/12/26 14:04:33;;;;;;;2.00;0.98;;;21.90;40.30;;;;;;5044053;28;20033;-51
2022/12/26 14:07:29;;;;;;;2.80;1.20;;;21.90;40.20;;;;;;5055233;28;20061;-52
2022/12/26 14:10:23;;;;;;;2.45;1.15;;;21.80;40.00;;;;;;5050285;28;20035;-54
2022/12/26 14:13:10;;;;;;;4.30;1.23;;;21.80;39.90;;;;;;5052375;28;20357;-51
2022/12/26 14:15:55;;;;;;;2.80;1.20;;;21.80;39.70;;;;;;5051315;28;20032;-50
2022/12/26 14:18:41;;;;;;;2.65;1.05;;;21.80;39.70;;;;;;5047162;28;20033;-52
2022/12/26 14:21:26;;;;;;;2.80;1.05;;;21.80;39.60;;;;;;5026774;28;20446;-49
2022/12/26 14:24:01;;;;;;;2.47;0.95;;;21.80;39.50;;;;;;5045196;28;20086;-53
2022/12/26 14:26:51;;;;;;;2.30;1.10;;;21.80;39.40;;;;;;5047478;28;20372;-52
2022/12/26 14:29:42;;;;;;;2.28;1.20;;;21.70;39.30;;;;;;5045793;28;20040;-50
2022/12/26 14:32:38;;;;;;;1.98;0.88;;;21.80;39.30;;;;;;5024843;28;20073;-53
2022/12/26 14:35:29;;;;;;;1.58;0.90;;;21.70;39.30;;;;;;5049719;28;20037;-53
2022/12/26 14:38:05;;;;;;;2.40;1.17;;;21.70;39.30;;;;;;5045023;28;20028;-55
2022/12/26 14:40:36;;;;;;;2.28;1.00;;;21.70;39.30;;;;;;5048783;28;20035;-48
2022/12/26 14:43:27;;;;;;;2.05;0.98;;;21.70;39.20;;;;;;5044429;28;20600;-52
2022/12/26 14:45:54;;;;;;;2.83;1.20;;;21.60;39.00;;;;;;5027970;28;20021;-49
2022/12/26 14:48:23;;;;;;;3.03;1.20;;;21.70;39.00;;;;;;5044846;28;20075;-53
2022/12/26 14:50:53;;;;;;;2.28;0.93;;;21.60;38.80;;;;;;5041635;28;20025;-51
2022/12/26 14:53:28;;;;;;;3.22;0.82;;;21.60;38.80;;;;;;5046285;28;20483;-50
2022/12/26 14:56:14;;;;;;;2.80;1.05;;;21.60;38.70;;;;;;5044638;28;20107;-51
2022/12/26 14:58:44;;;;;;;2.97;1.15;;;21.60;38.60;;;;;;5045930;28;20025;-53
2022/12/26 15:01:17;;;;;;;7.38;0.90;;;21.60;38.60;;;;;;5044080;28;20024;-56
2022/12/26 15:04:03;;;;;;;3.15;1.13;;;21.60;39.20;;;;;;5041476;28;20031;-50
2022/12/26 15:07:02;;;;;;;3.35;1.10;;;21.60;38.70;;;;;;5045354;28;20029;-53
2022/12/26 15:09:52;;;;;;;2.63;1.02;;;21.60;38.80;;;;;;5004305;28;20453;-53
2022/12/26 15:12:39;;;;;;;2.42;1.00;;;21.50;38.80;;;;;;5042833;28;20048;-52
2022/12/26 15:15:31;;;;;;;3.05;1.00;;;21.50;38.80;;;;;;5042309;28;20041;-47
2022/12/26 15:18:11;;;;;;;3.00;1.00;;;21.50;38.70;;;;;;5044834;28;20124;-50
2022/12/26 15:21:07;;;;;;;1.58;0.95;;;21.50;38.60;;;;;;5042798;28;20059;-50
2022/12/26 15:24:11;;;;;;;1.58;0.85;;;21.50;38.50;;;;;;5043585;28;20037;-53
2022/12/26 15:26:37;;;;;;;2.40;0.73;;;21.50;38.50;;;;;;5042352;28;20441;-49